Time;durP1;ratioP1;P1;durP2;ratioP2;P2;SDS_P1;SDS_P2;PMS_P1;PMS_P2;Temp;Humidity;BMP_temperature;BMP_pressure;BME280_temperature;BME280_humidity;BME280_pressure;Samples;Min_cycle;Max_cycle;Signal;HPM_P1;HPM_P2
2021/09/10 00:00:22;;;;;;;11.45;6.43;;;17.60;99.90;;;;;;4993630;28;20041;-81
2021/09/10 00:02:47;;;;;;;12.13;5.90;;;17.60;99.90;;;;;;4979665;28;20037;-80
2021/09/10 00:05:13;;;;;;;8.60;6.05;;;17.60;99.90;;;;;;4972619;28;20484;-81
2021/09/10 00:07:39;;;;;;;6.75;5.80;;;17.60;99.90;;;;;;4980974;28;20044;-81
2021/09/10 00:10:05;;;;;;;9.50;5.97;;;17.60;99.90;;;;;;4967392;28;20034;-80
2021/09/10 00:12:31;;;;;;;7.88;6.30;;;17.60;99.90;;;;;;4976083;28;20752;-81
2021/09/10 00:14:57;;;;;;;9.68;6.35;;;17.60;99.90;;;;;;4980209;28;20038;-81
2021/09/10 00:17:22;;;;;;;8.77;6.30;;;17.60;99.90;;;;;;4980530;28;20492;-82
2021/09/10 00:19:48;;;;;;;8.15;5.70;;;17.60;99.90;;;;;;4992857;28;20030;-80
2021/09/10 00:22:14;;;;;;;8.60;6.28;;;17.60;99.90;;;;;;4989883;28;20477;-81
2021/09/10 00:24:39;;;;;;;8.23;5.70;;;17.50;99.90;;;;;;4991624;28;20026;-80
2021/09/10 00:27:05;;;;;;;10.40;5.40;;;17.50;99.90;;;;;;5003334;28;20664;-81
2021/09/10 00:29:31;;;;;;;11.60;5.68;;;17.50;99.90;;;;;;4988038;28;20034;-81
2021/09/10 00:31:56;;;;;;;8.43;5.20;;;17.50;99.90;;;;;;4968797;28;20039;-81
2021/09/10 00:34:22;;;;;;;7.85;5.18;;;17.60;99.90;;;;;;4990354;28;20064;-80
2021/09/10 00:36:48;;;;;;;6.07;4.55;;;17.60;99.90;;;;;;5013363;28;20026;-81
2021/09/10 00:39:14;;;;;;;7.75;5.55;;;17.60;99.90;;;;;;4989557;28;20245;-82
2021/09/10 00:41:40;;;;;;;6.13;5.50;;;17.60;99.90;;;;;;4999679;28;20036;-81
2021/09/10 00:44:07;;;;;;;8.55;5.07;;;17.60;99.90;;;;;;5020073;28;20017;-80
2021/09/10 00:46:32;;;;;;;7.35;5.25;;;17.70;99.90;;;;;;4995057;28;20110;-81
2021/09/10 00:48:59;;;;;;;5.75;5.13;;;17.70;99.90;;;;;;4999056;28;20500;-81
2021/09/10 00:51:25;;;;;;;7.15;5.07;;;17.70;99.90;;;;;;4965411;28;20030;-81
2021/09/10 00:53:51;;;;;;;7.40;4.97;;;17.70;99.90;;;;;;4982216;28;20030;-80
2021/09/10 00:56:17;;;;;;;8.10;4.80;;;17.70;99.90;;;;;;4994876;28;20045;-80
2021/09/10 00:58:43;;;;;;;6.68;4.97;;;17.70;99.90;;;;;;5028702;28;20033;-82
2021/09/10 01:01:09;;;;;;;7.68;5.13;;;17.60;99.90;;;;;;4985037;28;20057;-80
2021/09/10 01:03:35;;;;;;;8.07;4.85;;;17.70;99.90;;;;;;4986886;28;20116;-80
2021/09/10 01:06:04;;;;;;;7.55;4.65;;;17.60;99.90;;;;;;5006620;28;20515;-80
2021/09/10 01:08:31;;;;;;;5.95;5.05;;;17.60;99.90;;;;;;4999874;28;20045;-81
2021/09/10 01:10:59;;;;;;;6.05;4.60;;;17.60;99.90;;;;;;4974957;28;20034;-81
2021/09/10 01:13:26;;;;;;;5.63;4.50;;;17.50;99.90;;;;;;4989413;28;20112;-81
2021/09/10 01:15:52;;;;;;;7.63;5.28;;;17.50;99.90;;;;;;4987070;28;20029;-82
2021/09/10 01:18:19;;;;;;;7.03;5.28;;;17.50;99.90;;;;;;4985448;28;20546;-82
2021/09/10 01:20:49;;;;;;;8.40;5.22;;;17.40;99.90;;;;;;4985611;28;20033;-82
2021/09/10 01:23:16;;;;;;;5.63;4.70;;;17.40;99.90;;;;;;4989269;28;20034;-81
2021/09/10 01:25:42;;;;;;;7.63;4.78;;;17.40;99.90;;;;;;4996699;28;20116;-82
2021/09/10 01:28:08;;;;;;;8.52;5.35;;;17.30;99.90;;;;;;5013474;28;20479;-81
2021/09/10 01:30:35;;;;;;;6.95;4.90;;;17.30;99.90;;;;;;5000491;28;20088;-80
2021/09/10 01:33:05;;;;;;;5.70;5.10;;;17.30;99.90;;;;;;5000966;28;20045;-81
2021/09/10 01:35:31;;;;;;;6.80;5.30;;;17.20;99.90;;;;;;5010173;28;20123;-82
2021/09/10 01:37:57;;;;;;;7.90;5.78;;;17.20;99.90;;;;;;4980265;28;20121;-81
2021/09/10 01:40:23;;;;;;;5.75;5.13;;;17.10;99.90;;;;;;4997081;28;20037;-80
2021/09/10 01:42:50;;;;;;;7.03;5.40;;;17.10;99.90;;;;;;4986879;28;20113;-81
2021/09/10 01:45:16;;;;;;;7.55;5.40;;;17.00;99.90;;;;;;5008656;28;20100;-80
2021/09/10 01:47:42;;;;;;;9.70;5.78;;;17.00;99.90;;;;;;4999140;28;20491;-80
2021/09/10 01:50:10;;;;;;;6.43;5.50;;;16.90;99.90;;;;;;4958446;28;20035;-81
2021/09/10 01:52:36;;;;;;;9.38;5.72;;;16.90;99.90;;;;;;4975560;28;20033;-80
2021/09/10 01:55:03;;;;;;;5.95;5.20;;;16.90;99.90;;;;;;4993649;28;20547;-82
2021/09/10 01:57:29;;;;;;;9.82;5.68;;;16.90;99.90;;;;;;4994298;28;20037;-81
2021/09/10 01:59:55;;;;;;;8.52;6.45;;;16.90;99.90;;;;;;5034718;23;20049;-80
2021/09/10 02:02:20;;;;;;;8.18;5.60;;;16.80;99.90;;;;;;4999442;28;20482;-81
2021/09/10 02:04:46;;;;;;;8.27;6.47;;;16.80;99.90;;;;;;5018073;28;20929;-81
2021/09/10 02:07:12;;;;;;;8.02;6.57;;;16.70;99.90;;;;;;5024767;28;20059;-81
2021/09/10 02:09:37;;;;;;;7.32;5.65;;;16.70;99.90;;;;;;5019426;28;20079;-81
2021/09/10 02:12:04;;;;;;;10.40;6.60;;;16.60;99.90;;;;;;4994942;28;20030;-82
2021/09/10 02:14:33;;;;;;;10.80;7.28;;;16.50;99.90;;;;;;5013597;28;20044;-82
2021/09/10 02:16:59;;;;;;;8.60;6.20;;;16.50;99.90;;;;;;5014968;28;20108;-82
2021/09/10 02:19:25;;;;;;;8.95;6.07;;;16.50;99.90;;;;;;5005110;28;20029;-82
2021/09/10 02:21:51;;;;;;;8.85;6.53;;;16.50;99.90;;;;;;4990037;28;20044;-81
2021/09/10 02:24:17;;;;;;;11.75;5.97;;;16.40;99.90;;;;;;4997697;28;20064;-82
2021/09/10 02:26:43;;;;;;;7.03;5.78;;;16.40;99.90;;;;;;5014560;28;20696;-82
2021/09/10 02:29:09;;;;;;;6.90;5.78;;;16.30;99.90;;;;;;5003480;28;20045;-81
2021/09/10 02:31:35;;;;;;;8.20;6.55;;;16.30;99.90;;;;;;5014623;28;20040;-81
2021/09/10 02:34:01;;;;;;;6.93;5.70;;;16.30;99.90;;;;;;5028425;28;20505;-81
2021/09/10 02:36:26;;;;;;;8.52;5.75;;;16.20;99.90;;;;;;5014404;28;20033;-82
2021/09/10 02:38:53;;;;;;;11.68;5.85;;;16.20;99.90;;;;;;5022370;28;20399;-82
2021/09/10 02:41:19;;;;;;;9.75;6.05;;;16.10;99.90;;;;;;5010705;28;20041;-81
2021/09/10 02:43:45;;;;;;;8.55;6.60;;;16.10;99.90;;;;;;4997017;28;20036;-81
2021/09/10 02:46:11;;;;;;;13.10;6.18;;;16.20;99.90;;;;;;5011903;28;20029;-81
2021/09/10 02:48:36;;;;;;;7.13;5.70;;;16.10;99.90;;;;;;5013646;28;20506;-82
2021/09/10 02:51:02;;;;;;;8.35;6.13;;;16.10;99.90;;;;;;5020312;28;20395;-81
2021/09/10 02:53:28;;;;;;;7.75;5.70;;;16.00;99.90;;;;;;5025600;28;20687;-82
2021/09/10 02:55:56;;;;;;;6.50;5.57;;;16.00;99.90;;;;;;4997556;28;20033;-81
2021/09/10 02:58:22;;;;;;;7.10;5.38;;;15.90;99.90;;;;;;5038134;28;20037;-81
2021/09/10 03:00:48;;;;;;;8.38;6.18;;;15.90;99.90;;;;;;5026431;28;20045;-82
2021/09/10 03:03:15;;;;;;;9.40;6.57;;;15.80;99.90;;;;;;4998811;28;20026;-82
2021/09/10 03:05:41;;;;;;;7.13;5.95;;;15.80;99.90;;;;;;5030791;28;20029;-82
2021/09/10 03:08:06;;;;;;;8.40;6.47;;;15.70;99.90;;;;;;5027611;28;20457;-81
2021/09/10 03:10:32;;;;;;;8.70;7.25;;;15.70;99.90;;;;;;4992537;28;20030;-81
2021/09/10 03:12:58;;;;;;;8.45;6.32;;;15.70;99.90;;;;;;4995998;28;20288;-82
2021/09/10 03:15:23;;;;;;;10.68;6.80;;;15.70;99.90;;;;;;4980930;28;20083;-81
2021/09/10 03:17:49;;;;;;;9.27;6.80;;;15.70;99.90;;;;;;5000654;28;20087;-82
2021/09/10 03:20:15;;;;;;;9.65;6.25;;;15.70;99.90;;;;;;5036981;28;20034;-82
2021/09/10 03:22:41;;;;;;;9.82;6.35;;;15.80;99.90;;;;;;5008750;28;20021;-82
2021/09/10 03:25:07;;;;;;;8.27;6.38;;;15.80;99.90;;;;;;5018581;28;20072;-81
2021/09/10 03:27:35;;;;;;;8.07;6.55;;;15.80;99.90;;;;;;5031115;28;20627;-82
2021/09/10 03:30:04;;;;;;;9.27;6.32;;;15.70;99.90;;;;;;4995666;28;20036;-82
2021/09/10 03:32:30;;;;;;;7.90;6.30;;;15.70;99.90;;;;;;5007636;28;20426;-81
2021/09/10 03:34:56;;;;;;;9.13;6.63;;;15.60;99.90;;;;;;5017494;28;20037;-81
2021/09/10 03:37:21;;;;;;;10.05;6.15;;;15.60;99.90;;;;;;5004793;28;20129;-81
2021/09/10 03:39:47;;;;;;;10.38;7.20;;;15.60;99.90;;;;;;5020259;28;20091;-82
2021/09/10 03:42:13;;;;;;;12.35;8.15;;;15.50;99.90;;;;;;4987220;28;20038;-82
2021/09/10 03:44:38;;;;;;;10.10;6.75;;;15.50;99.90;;;;;;5011579;28;20684;-82
2021/09/10 03:47:07;;;;;;;10.52;7.32;;;15.50;99.90;;;;;;4994006;28;20036;-82
2021/09/10 03:49:37;;;;;;;8.80;7.13;;;15.50;99.90;;;;;;5030210;28;20026;-82
2021/09/10 03:52:04;;;;;;;9.38;6.43;;;15.50;99.90;;;;;;5022261;28;20041;-81
2021/09/10 03:54:29;;;;;;;8.65;6.53;;;15.50;99.90;;;;;;5014572;28;20029;-82
2021/09/10 03:56:55;;;;;;;9.68;7.03;;;15.50;99.90;;;;;;5014059;28;20034;-81
2021/09/10 03:59:21;;;;;;;10.57;7.28;;;15.50;99.90;;;;;;4998874;28;20038;-82
2021/09/10 04:01:46;;;;;;;11.18;7.07;;;15.50;99.90;;;;;;5008994;28;20034;-81
2021/09/10 04:04:12;;;;;;;8.48;6.15;;;15.50;99.90;;;;;;5030945;28;20030;-81
2021/09/10 04:06:40;;;;;;;11.60;7.63;;;15.40;99.90;;;;;;5013169;28;20491;-82
2021/09/10 04:09:09;;;;;;;10.32;7.38;;;15.40;99.90;;;;;;5004816;28;20046;-82
2021/09/10 04:11:37;;;;;;;12.02;8.43;;;15.40;99.90;;;;;;5007825;28;20064;-81
2021/09/10 04:14:02;;;;;;;9.77;6.95;;;15.30;99.90;;;;;;5009325;28;20045;-81
2021/09/10 04:16:28;;;;;;;9.68;7.63;;;15.30;99.90;;;;;;5013968;28;20052;-81
2021/09/10 04:18:54;;;;;;;8.93;6.70;;;15.30;99.90;;;;;;5011149;28;20040;-82
2021/09/10 04:21:19;;;;;;;10.02;6.93;;;15.30;99.90;;;;;;5007656;28;20034;-81
2021/09/10 04:23:45;;;;;;;10.40;7.82;;;15.30;99.90;;;;;;4997353;28;20083;-82
2021/09/10 04:26:11;;;;;;;9.15;6.57;;;15.30;99.90;;;;;;5022789;28;20041;-81
2021/09/10 04:28:37;;;;;;;10.73;7.50;;;15.30;99.90;;;;;;5016611;28;20033;-82
2021/09/10 04:31:02;;;;;;;10.88;7.65;;;15.30;99.90;;;;;;5014122;28;20408;-82
2021/09/10 04:33:28;;;;;;;10.27;7.85;;;15.30;99.90;;;;;;5018882;28;20069;-81
2021/09/10 04:35:54;;;;;;;13.05;7.30;;;15.30;99.90;;;;;;5013775;28;20626;-82
2021/09/10 04:38:20;;;;;;;10.02;7.13;;;15.30;99.90;;;;;;5000103;28;20045;-82
2021/09/10 04:40:45;;;;;;;10.20;7.22;;;15.30;99.90;;;;;;5023528;28;20041;-82
2021/09/10 04:43:11;;;;;;;11.90;7.95;;;15.20;99.90;;;;;;4999834;28;20171;-81
2021/09/10 04:45:37;;;;;;;10.98;7.47;;;15.20;99.90;;;;;;5017927;28;20030;-81
2021/09/10 04:48:03;;;;;;;12.80;7.22;;;15.20;99.90;;;;;;5019397;28;20037;-82
2021/09/10 04:50:29;;;;;;;10.48;7.03;;;15.20;99.90;;;;;;5040005;28;20041;-82
2021/09/10 04:52:55;;;;;;;8.65;7.63;;;15.10;99.90;;;;;;5018370;28;20503;-81
2021/09/10 04:55:21;;;;;;;10.82;7.90;;;15.10;99.90;;;;;;5014022;28;20037;-81
2021/09/10 04:57:47;;;;;;;11.35;7.63;;;15.10;99.90;;;;;;5010803;28;20056;-81
2021/09/10 05:00:13;;;;;;;10.10;7.35;;;15.10;99.90;;;;;;5010384;28;20038;-81
2021/09/10 05:02:41;;;;;;;9.10;7.20;;;15.10;99.90;;;;;;5027844;28;20213;-81
2021/09/10 05:05:07;;;;;;;11.82;7.85;;;15.10;99.90;;;;;;5022888;28;20029;-81
2021/09/10 05:07:33;;;;;;;10.77;6.97;;;15.10;99.90;;;;;;5002436;28;20112;-81
2021/09/10 05:09:59;;;;;;;11.65;7.30;;;15.10;99.90;;;;;;5008554;28;20033;-82
2021/09/10 05:12:25;;;;;;;11.20;7.85;;;15.20;99.90;;;;;;4989120;28;20096;-82
2021/09/10 05:14:52;;;;;;;11.43;7.50;;;15.10;99.90;;;;;;5004188;28;20458;-81
2021/09/10 05:17:21;;;;;;;10.85;8.63;;;15.10;99.90;;;;;;5010119;28;20507;-81
2021/09/10 05:19:48;;;;;;;10.70;8.25;;;15.20;99.90;;;;;;4997495;28;20064;-82
2021/09/10 05:22:14;;;;;;;9.93;7.68;;;15.10;99.90;;;;;;5012309;28;20033;-81
2021/09/10 05:24:40;;;;;;;10.30;7.75;;;15.10;99.90;;;;;;5032551;28;20025;-82
2021/09/10 05:27:06;;;;;;;13.43;9.75;;;15.20;99.90;;;;;;5023836;28;20095;-82
2021/09/10 05:29:32;;;;;;;12.15;9.23;;;15.20;99.90;;;;;;4998108;28;20525;-81
2021/09/10 05:31:58;;;;;;;12.13;8.43;;;15.20;99.90;;;;;;5033109;28;20533;-82
2021/09/10 05:34:24;;;;;;;14.18;8.65;;;15.30;99.90;;;;;;5025055;28;20029;-82
2021/09/10 05:36:50;;;;;;;14.85;9.90;;;15.30;99.90;;;;;;5017830;28;20026;-82
2021/09/10 05:39:15;;;;;;;11.77;9.32;;;15.40;99.90;;;;;;4998468;28;20037;-82
2021/09/10 05:41:41;;;;;;;15.05;10.02;;;15.40;99.90;;;;;;5025487;28;20036;-82
2021/09/10 05:44:07;;;;;;;15.13;10.13;;;15.40;99.90;;;;;;5032882;28;20091;-82
2021/09/10 05:46:32;;;;;;;13.43;9.68;;;15.50;99.90;;;;;;5032930;28;20490;-82
2021/09/10 05:48:58;;;;;;;14.50;9.80;;;15.50;99.90;;;;;;5015201;28;20030;-82
2021/09/10 05:51:24;;;;;;;13.13;9.27;;;15.60;99.90;;;;;;5003477;28;20041;-82
2021/09/10 05:53:49;;;;;;;10.35;8.52;;;15.80;99.90;;;;;;5012144;28;20030;-82
2021/09/10 05:56:15;;;;;;;26.92;16.42;;;16.10;99.90;;;;;;5027505;28;20030;-81
2021/09/10 05:58:41;;;;;;;22.00;14.50;;;16.30;99.90;;;;;;5023145;28;20082;-82
2021/09/10 06:01:06;;;;;;;23.52;16.73;;;16.60;99.90;;;;;;5024575;28;20037;-82
2021/09/10 06:03:32;;;;;;;31.88;21.13;;;16.70;99.90;;;;;;5031688;28;20060;-82
2021/09/10 06:05:58;;;;;;;13.70;8.95;;;17.00;99.90;;;;;;5032922;28;20032;-82
2021/09/10 06:08:23;;;;;;;11.90;9.30;;;17.10;99.90;;;;;;5022938;28;20061;-82
2021/09/10 06:10:49;;;;;;;12.95;8.52;;;17.30;99.90;;;;;;5031689;28;20045;-82
2021/09/10 06:13:15;;;;;;;13.50;8.95;;;17.50;99.90;;;;;;5009452;28;20404;-82
2021/09/10 06:15:41;;;;;;;11.40;7.88;;;17.70;99.90;;;;;;4994908;28;20038;-82
2021/09/10 06:18:07;;;;;;;12.52;8.05;;;17.90;99.90;;;;;;5025248;28;20048;-82
2021/09/10 06:20:33;;;;;;;12.00;7.80;;;18.10;99.90;;;;;;5024022;28;20044;-81
2021/09/10 06:22:58;;;;;;;9.23;7.57;;;18.10;99.90;;;;;;5014226;28;20041;-82
2021/09/10 06:25:27;;;;;;;14.35;7.60;;;18.40;99.90;;;;;;4994614;28;20030;-82
2021/09/10 06:27:53;;;;;;;12.35;7.30;;;18.50;99.90;;;;;;5010578;28;20037;-81
2021/09/10 06:30:20;;;;;;;11.60;7.28;;;18.80;99.90;;;;;;5037889;28;20399;-81
2021/09/10 06:32:45;;;;;;;9.38;7.35;;;19.00;99.90;;;;;;5006440;28;20037;-81
2021/09/10 06:35:11;;;;;;;9.93;6.85;;;19.20;99.90;;;;;;5014129;28;20052;-81
2021/09/10 06:37:37;;;;;;;9.07;6.65;;;19.50;99.90;;;;;;5015993;28;20164;-81
2021/09/10 06:40:04;;;;;;;10.48;7.85;;;19.60;99.90;;;;;;5031143;28;20029;-81
2021/09/10 06:42:30;;;;;;;8.32;6.88;;;19.60;99.90;;;;;;5012901;28;20033;-81
2021/09/10 06:44:56;;;;;;;10.68;7.53;;;19.50;99.90;;;;;;5001973;28;20036;-81
2021/09/10 06:47:22;;;;;;;9.23;7.60;;;19.40;99.90;;;;;;5013848;28;20033;-82
2021/09/10 06:49:48;;;;;;;8.65;6.90;;;19.60;99.90;;;;;;5025869;28;20105;-82
2021/09/10 06:52:14;;;;;;;10.43;7.65;;;19.60;99.90;;;;;;5018332;28;20466;-81
2021/09/10 06:54:40;;;;;;;7.70;6.90;;;19.70;99.90;;;;;;5009960;28;20442;-81
2021/09/10 06:57:06;;;;;;;9.57;7.43;;;19.60;99.90;;;;;;5013011;28;20112;-82
2021/09/10 06:59:32;;;;;;;11.55;8.02;;;19.50;99.90;;;;;;5006142;28;20146;-82
2021/09/10 07:01:58;;;;;;;11.25;7.78;;;19.70;99.90;;;;;;5016808;28;20038;-82
2021/09/10 07:04:23;;;;;;;9.25;7.75;;;19.90;99.90;;;;;;5019220;28;20029;-82
2021/09/10 07:06:49;;;;;;;10.82;7.03;;;20.20;99.90;;;;;;4992565;28;20541;-83
2021/09/10 07:09:15;;;;;;;9.23;7.10;;;20.60;99.90;;;;;;5029233;28;20220;-82
2021/09/10 07:11:40;;;;;;;10.80;7.78;;;20.90;99.90;;;;;;5019830;28;20030;-80
2021/09/10 07:14:06;;;;;;;10.55;7.53;;;20.70;99.90;;;;;;5029799;28;20599;-80
2021/09/10 07:16:32;;;;;;;11.68;7.85;;;21.00;99.90;;;;;;5016748;28;20415;-80
2021/09/10 07:18:59;;;;;;;11.23;7.88;;;21.00;99.90;;;;;;5021328;28;20072;-80
2021/09/10 07:21:25;;;;;;;8.95;7.65;;;21.10;99.90;;;;;;5005698;28;20079;-80
2021/09/10 07:23:50;;;;;;;10.20;6.90;;;21.30;99.90;;;;;;5022366;28;20431;-80
2021/09/10 07:26:16;;;;;;;12.23;7.70;;;21.50;99.90;;;;;;5030866;28;20065;-80
2021/09/10 07:28:43;;;;;;;11.13;7.43;;;21.90;99.90;;;;;;5019076;28;20030;-80
2021/09/10 07:31:09;;;;;;;8.77;6.88;;;22.20;99.90;;;;;;5011794;28;20694;-80
2021/09/10 07:33:37;;;;;;;7.28;6.20;;;22.50;99.90;;;;;;5022042;28;20112;-80
2021/09/10 07:36:04;;;;;;;7.85;6.25;;;22.60;99.90;;;;;;5010121;28;20475;-80
2021/09/10 07:38:30;;;;;;;11.65;6.40;;;22.70;99.90;;;;;;4996799;28;20064;-80
2021/09/10 07:40:56;;;;;;;7.90;5.93;;;22.90;99.90;;;;;;5017541;28;20038;-80
2021/09/10 07:43:22;;;;;;;9.48;5.63;;;22.90;99.90;;;;;;5013139;28;20028;-80
2021/09/10 07:45:47;;;;;;;6.88;5.63;;;23.00;99.90;;;;;;5005763;28;20054;-79
2021/09/10 07:48:13;;;;;;;7.38;5.75;;;23.10;99.90;;;;;;5021329;28;20052;-80
2021/09/10 07:50:39;;;;;;;6.32;5.45;;;23.10;99.90;;;;;;5024676;28;20111;-80
2021/09/10 07:53:05;;;;;;;12.15;5.40;;;23.10;99.90;;;;;;5010118;28;20380;-80
2021/09/10 07:55:30;;;;;;;7.13;5.78;;;23.20;99.90;;;;;;5005402;28;20034;-80
2021/09/10 07:57:56;;;;;;;6.18;5.25;;;23.30;99.90;;;;;;5012901;28;20384;-80
2021/09/10 08:00:22;;;;;;;8.75;5.70;;;23.30;99.90;;;;;;5049165;22;20367;-81
2021/09/10 08:02:49;;;;;;;6.25;5.38;;;23.20;99.90;;;;;;4980268;28;20030;-81
2021/09/10 08:05:16;;;;;;;7.15;5.65;;;23.10;99.90;;;;;;4996507;28;20037;-81
2021/09/10 08:07:42;;;;;;;7.88;5.30;;;23.10;99.90;;;;;;5000013;28;20035;-80
2021/09/10 08:10:14;;;;;;;8.15;5.03;;;23.10;99.90;;;;;;4989013;28;20021;-82
2021/09/10 08:12:41;;;;;;;6.65;5.22;;;23.10;99.90;;;;;;5019555;28;20037;-81
2021/09/10 08:15:07;;;;;;;6.80;5.63;;;23.10;99.90;;;;;;4997426;28;20116;-81
2021/09/10 08:17:33;;;;;;;5.63;4.97;;;23.10;99.90;;;;;;5021950;28;20033;-81
2021/09/10 08:19:58;;;;;;;5.78;5.13;;;23.10;99.90;;;;;;4998891;28;20075;-81
2021/09/10 08:22:24;;;;;;;5.95;5.35;;;23.20;99.90;;;;;;4977422;28;20499;-82
2021/09/10 08:24:50;;;;;;;6.30;5.55;;;23.10;99.90;;;;;;5003260;28;20479;-81
2021/09/10 08:27:15;;;;;;;6.22;5.22;;;23.10;99.90;;;;;;4991680;28;20097;-82
2021/09/10 08:29:41;;;;;;;6.70;5.20;;;23.10;99.90;;;;;;4999734;28;20487;-81
2021/09/10 08:32:07;;;;;;;5.93;5.22;;;23.10;99.90;;;;;;5029068;28;20034;-82
2021/09/10 08:34:33;;;;;;;6.55;5.22;;;23.10;99.90;;;;;;5005838;28;20048;-84
2021/09/10 08:36:58;;;;;;;6.78;5.22;;;23.00;99.90;;;;;;5006104;28;20403;-83
2021/09/10 08:39:24;;;;;;;6.47;4.68;;;23.00;99.90;;;;;;4988430;28;20620;-81
2021/09/10 08:41:50;;;;;;;9.98;5.43;;;23.00;99.90;;;;;;5009483;28;20183;-81
2021/09/10 08:44:17;;;;;;;8.23;5.70;;;23.10;99.90;;;;;;5008965;28;20030;-83
2021/09/10 08:46:44;;;;;;;6.30;5.15;;;23.00;99.90;;;;;;4992045;28;20515;-82
2021/09/10 08:49:13;;;;;;;6.93;5.10;;;22.90;99.90;;;;;;5013064;28;20041;-83
2021/09/10 08:51:39;;;;;;;6.50;5.43;;;22.90;99.90;;;;;;5005902;28;20551;-81
2021/09/10 08:54:05;;;;;;;12.60;5.68;;;22.90;99.90;;;;;;4993569;28;20045;-82
2021/09/10 08:56:31;;;;;;;5.68;5.07;;;22.90;99.90;;;;;;5022903;28;20185;-80
2021/09/10 08:59:11;;;;;;;8.23;5.10;;;22.90;99.90;;;;;;5007770;28;20574;-81
2021/09/10 09:01:56;;;;;;;7.60;5.93;;;22.80;99.90;;;;;;5010380;28;20056;-80
2021/09/10 09:04:23;;;;;;;;;;;22.80;99.90;;;;;;5001095;28;20488;-83
2021/09/10 09:06:58;;;;;;;7.82;5.72;;;22.80;99.90;;;;;;5040814;28;19991;-83
2021/09/10 09:09:39;;;;;;;7.00;5.63;;;22.80;99.90;;;;;;5047857;28;20032;-80
2021/09/10 09:12:30;;;;;;;6.50;5.55;;;22.80;99.90;;;;;;5016367;28;20036;-82
2021/09/10 09:15:07;;;;;;;7.80;5.40;;;22.70;99.90;;;;;;5016561;28;20546;-82
2021/09/10 09:17:40;;;;;;;7.15;5.25;;;22.60;99.90;;;;;;5016340;28;20041;-83
2021/09/10 09:20:10;;;;;;;8.25;5.47;;;22.60;99.90;;;;;;5018346;28;20772;-81
2021/09/10 09:23:03;;;;;;;6.03;5.15;;;22.60;99.90;;;;;;5029481;28;20029;-81
2021/09/10 09:25:33;;;;;;;7.18;5.10;;;22.60;99.90;;;;;;5007614;28;20116;-83
2021/09/10 09:28:25;;;;;;;7.50;5.43;;;22.60;99.90;;;;;;5009386;28;20536;-81
2021/09/10 09:30:59;;;;;;;6.88;5.75;;;22.70;99.90;;;;;;5007498;28;20083;-82
2021/09/10 09:33:31;;;;;;;7.40;5.10;;;22.70;99.90;;;;;;4998936;28;20057;-81
2021/09/10 09:35:58;;;;;;;6.43;5.18;;;22.70;99.90;;;;;;5039084;28;20499;-81
2021/09/10 09:38:32;;;;;;;5.78;4.60;;;22.70;99.90;;;;;;5011093;28;20056;-82
2021/09/10 09:41:00;;;;;;;5.50;5.00;;;22.80;99.90;;;;;;5009722;28;20072;-81
2021/09/10 09:43:32;;;;;;;6.93;5.00;;;22.80;99.90;;;;;;4994588;28;20018;-81
2021/09/10 09:45:59;;;;;;;5.35;4.63;;;22.90;99.90;;;;;;5011916;28;20380;-83
2021/09/10 09:48:26;;;;;;;5.72;4.93;;;22.90;99.90;;;;;;5027597;28;20029;-81
2021/09/10 09:50:53;;;;;;;5.50;4.65;;;22.90;99.90;;;;;;5014681;28;20029;-82
2021/09/10 09:53:20;;;;;;;4.80;4.30;;;23.00;99.90;;;;;;5033406;28;20037;-81
2021/09/10 09:55:48;;;;;;;6.28;4.40;;;23.00;99.90;;;;;;4999004;28;20025;-81
2021/09/10 09:58:14;;;;;;;5.70;4.35;;;23.00;99.90;;;;;;5000739;28;20094;-80
2021/09/10 10:00:41;;;;;;;4.88;4.38;;;23.10;99.90;;;;;;5026441;28;20040;-83
2021/09/10 10:03:08;;;;;;;4.97;4.50;;;23.10;99.90;;;;;;5002998;28;20030;-82
2021/09/10 10:05:52;;;;;;;7.40;4.88;;;23.10;99.90;;;;;;5024667;28;20140;-80
2021/09/10 10:08:23;;;;;;;6.25;5.40;;;23.20;99.90;;;;;;5022010;28;20517;-81
2021/09/10 10:10:53;;;;;;;5.28;4.75;;;23.10;99.90;;;;;;5046535;28;20029;-83
2021/09/10 10:13:25;;;;;;;6.57;4.75;;;23.20;99.90;;;;;;5000957;28;20040;-82
2021/09/10 10:15:52;;;;;;;6.18;4.78;;;23.20;99.90;;;;;;5017981;28;20029;-81
2021/09/10 10:18:41;;;;;;;5.55;4.97;;;23.30;99.90;;;;;;5025368;28;20037;-81
2021/09/10 10:21:12;;;;;;;5.75;4.80;;;23.30;99.90;;;;;;5022207;28;20373;-81
2021/09/10 10:23:46;;;;;;;8.30;4.60;;;23.30;99.90;;;;;;5014321;28;20032;-81
2021/09/10 10:26:11;;;;;;;5.57;4.57;;;23.40;99.90;;;;;;5012765;28;20036;-81
2021/09/10 10:28:47;;;;;;;5.85;4.97;;;23.40;99.90;;;;;;5027845;28;20021;-82
2021/09/10 10:31:14;;;;;;;5.82;4.70;;;23.40;99.90;;;;;;5048069;28;20510;-80
2021/09/10 10:34:03;;;;;;;5.43;4.78;;;23.40;99.90;;;;;;5012553;28;20037;-79
2021/09/10 10:36:34;;;;;;;5.25;4.20;;;23.40;99.90;;;;;;4990371;28;20407;-80
2021/09/10 10:39:09;;;;;;;6.68;4.82;;;23.50;99.90;;;;;;5006160;28;20115;-82
2021/09/10 10:41:46;;;;;;;4.85;4.30;;;23.60;99.90;;;;;;5004660;28;20059;-81
2021/09/10 10:44:31;;;;;;;5.32;4.78;;;23.60;99.90;;;;;;5033242;28;20075;-81
2021/09/10 10:47:08;;;;;;;6.70;4.60;;;23.70;99.90;;;;;;5010240;28;20025;-80
2021/09/10 10:49:43;;;;;;;5.82;4.78;;;23.80;99.90;;;;;;5013932;28;20495;-81
2021/09/10 10:52:32;;;;;;;5.35;4.45;;;23.70;99.90;;;;;;4994404;28;20654;-80
2021/09/10 10:55:16;;;;;;;6.43;4.43;;;23.80;99.90;;;;;;4977462;28;20060;-81
2021/09/10 10:57:41;;;;;;;6.85;4.57;;;23.80;99.90;;;;;;5037172;28;20064;-81
2021/09/10 11:00:26;;;;;;;4.63;4.22;;;23.80;99.90;;;;;;5015112;28;20465;-81
2021/09/10 11:03:14;;;;;;;5.10;4.60;;;23.80;99.90;;;;;;5036342;28;20349;-81
2021/09/10 11:05:41;;;;;;;6.18;4.55;;;23.80;99.90;;;;;;5011505;28;20053;-81
2021/09/10 11:08:07;;;;;;;6.95;4.45;;;23.90;99.90;;;;;;5038320;28;20027;-80
2021/09/10 11:10:33;;;;;;;4.70;4.30;;;23.90;99.90;;;;;;5017656;28;20125;-80
2021/09/10 11:12:59;;;;;;;5.57;4.43;;;24.00;99.90;;;;;;5012896;28;20635;-81
2021/09/10 11:15:31;;;;;;;5.47;4.93;;;24.00;99.90;;;;;;5027073;28;20068;-80
2021/09/10 11:18:06;;;;;;;8.30;5.55;;;24.00;99.90;;;;;;5015392;28;20037;-81
2021/09/10 11:20:37;;;;;;;5.93;5.15;;;24.00;99.90;;;;;;5025781;28;20045;-81
2021/09/10 11:23:05;;;;;;;5.85;4.35;;;24.00;99.90;;;;;;5030826;28;20110;-81
2021/09/10 11:25:31;;;;;;;6.03;4.72;;;24.00;99.90;;;;;;4997064;28;20066;-81
2021/09/10 11:27:57;;;;;;;6.03;4.65;;;24.10;99.90;;;;;;5004382;28;20040;-81
2021/09/10 11:30:26;;;;;;;6.55;4.60;;;24.10;99.90;;;;;;5022297;28;20029;-80
2021/09/10 11:33:00;;;;;;;8.20;4.60;;;24.10;99.90;;;;;;5000015;28;20033;-80
2021/09/10 11:35:28;;;;;;;4.80;4.30;;;24.10;99.90;;;;;;5016853;28;20029;-81
2021/09/10 11:38:15;;;;;;;6.18;4.70;;;24.10;99.90;;;;;;5023767;28;20055;-81
2021/09/10 11:40:42;;;;;;;4.97;4.07;;;24.20;99.90;;;;;;4996180;28;20443;-80
2021/09/10 11:43:13;;;;;;;5.40;4.22;;;24.30;99.90;;;;;;5015701;28;20126;-81
2021/09/10 11:45:45;;;;;;;5.22;4.72;;;24.30;99.90;;;;;;5012925;28;20024;-80
2021/09/10 11:48:13;;;;;;;10.32;5.47;;;24.50;99.90;;;;;;5006615;28;20371;-81
2021/09/10 11:50:59;;;;;;;5.70;4.28;;;24.30;99.90;;;;;;5024742;28;20049;-81
2021/09/10 11:53:33;;;;;;;6.28;4.35;;;24.40;99.90;;;;;;4996252;28;20030;-80
2021/09/10 11:56:07;;;;;;;4.85;4.35;;;24.40;99.90;;;;;;5014848;28;20029;-80
2021/09/10 11:58:49;;;;;;;5.10;4.57;;;24.50;99.90;;;;;;4996630;28;20029;-79
2021/09/10 12:01:39;;;;;;;4.57;4.18;;;24.60;99.90;;;;;;5028739;28;20061;-81
2021/09/10 12:04:23;;;;;;;5.82;5.10;;;24.80;99.90;;;;;;5010610;28;20025;-80
2021/09/10 12:06:53;;;;;;;6.47;4.70;;;24.80;99.90;;;;;;5022376;28;20396;-81
2021/09/10 12:09:27;;;;;;;5.03;4.53;;;24.80;99.90;;;;;;5028708;28;20029;-81
2021/09/10 12:12:00;;;;;;;6.93;4.43;;;25.00;99.90;;;;;;5038476;28;20029;-81
2021/09/10 12:14:42;;;;;;;6.47;4.72;;;25.00;99.90;;;;;;5014554;28;20025;-80
2021/09/10 12:17:19;;;;;;;5.55;4.10;;;25.20;99.90;;;;;;5029463;28;20033;-80
2021/09/10 12:20:03;;;;;;;4.68;4.28;;;25.30;99.90;;;;;;5024138;28;20057;-81
2021/09/10 12:22:28;;;;;;;6.40;5.03;;;25.30;99.90;;;;;;4993516;28;20029;-81
2021/09/10 12:25:18;;;;;;;4.53;4.13;;;25.50;99.90;;;;;;5012896;28;20021;-82
2021/09/10 12:27:47;;;;;;;6.80;4.70;;;25.60;99.90;;;;;;5019167;28;20025;-80
2021/09/10 12:30:14;;;;;;;7.60;4.32;;;25.70;99.90;;;;;;4989618;28;20026;-81
2021/09/10 12:32:41;;;;;;;6.22;4.30;;;25.70;98.60;;;;;;5001020;28;20113;-81
2021/09/10 12:35:08;;;;;;;10.52;5.00;;;25.70;99.90;;;;;;5022020;28;20539;-82
2021/09/10 12:37:34;;;;;;;5.07;4.28;;;25.70;99.90;;;;;;5041572;28;20013;-79
2021/09/10 12:40:01;;;;;;;6.55;4.85;;;25.80;99.90;;;;;;5015103;28;20033;-80
2021/09/10 12:42:28;;;;;;;4.47;4.05;;;25.90;99.90;;;;;;5022282;28;20156;-80
2021/09/10 12:44:56;;;;;;;6.15;4.20;;;25.90;98.50;;;;;;5039152;28;20049;-81
2021/09/10 12:47:22;;;;;;;6.18;4.18;;;25.70;97.80;;;;;;5028162;28;20063;-80